Terminal Aerodrome Forecast
Issued by NWS

Home | Current Version | Previous Version | Graphics & Text | Print | Product List | Glossary Off
Versions: 1 2 3 4 5 6 7 8 9 10 11 12 13 14 15 16 17 18 19 20 21 22 23 24 25 26 27 28 29 30 31 32 33 34 35 36 37

000
FTUS43 KDDC 200320 AAB
TAFHYS
TAF AMD
KHYS 200320Z 2003/2024 01014KT P6SM BKN006 OVC012
     FM200600 01010KT 3SM BR OVC003
      TEMPO 2010/2014 1SM BR OVC001
     FM201700 01008KT P6SM BKN025=

USA.gov is the U.S. government's official web portal to all federal, state and local government web resources and services.